createdAt,value
2019-02-19T01:31:54.495Z,2.10
2019-02-19T01:34:21.599Z,1.10
2019-02-19T01:36:48.749Z,1.10
2019-02-19T01:39:15.593Z,1.10
2019-02-19T01:41:43.063Z,1.20
2019-02-19T01:44:09.897Z,1.00
2019-02-19T01:46:37.043Z,1.00
2019-02-19T01:49:03.923Z,0.90
2019-02-19T01:51:31.039Z,1.00
2019-02-19T01:53:58.187Z,0.90
2019-02-19T01:56:25.032Z,0.80
2019-02-19T01:58:52.198Z,0.80
2019-02-19T04:45:55.678Z,0.70
2019-02-19T04:48:22.479Z,0.70
2019-02-19T04:50:49.312Z,0.80
2019-02-19T04:53:16.202Z,0.80
2019-02-19T04:55:43.005Z,0.70
2019-02-19T04:58:10.147Z,0.80
2019-02-19T05:00:36.997Z,0.70
2019-02-19T05:03:03.835Z,0.70
2019-02-19T05:05:30.987Z,0.80
2019-02-19T05:07:57.831Z,0.60
2019-02-19T05:10:24.983Z,0.60
2019-02-19T05:12:52.135Z,0.70
2019-02-19T05:15:19.587Z,0.80
2019-02-19T05:17:46.743Z,0.70
2019-02-19T05:20:13.889Z,0.60
2019-02-19T05:22:41.039Z,0.50
2019-02-19T05:25:12.333Z,0.50
2019-02-19T05:27:44.352Z,0.50
2019-02-19T05:30:12.883Z,0.80
2019-02-19T05:32:41.967Z,0.20
2019-02-19T05:35:12.877Z,0.60
2019-02-19T05:37:43.215Z,0.70
2019-02-19T05:40:12.440Z,0.60
2019-02-19T15:53:19.627Z,0.20
2019-02-19T15:56:03.673Z,17.50
2019-02-19T15:58:50.482Z,17.00
2019-02-19T16:11:27.125Z,16.20
2019-02-19T16:14:05.027Z,15.00
2019-02-19T16:16:48.766Z,14.90
2019-02-19T20:56:07.435Z,14.60
2019-02-19T20:58:35.139Z,6.80
2019-02-19T21:01:03.211Z,6.60
2019-02-19T21:03:30.022Z,6.50
2019-02-19T21:05:59.120Z,6.50
2019-02-19T21:08:26.166Z,6.50
2019-02-19T21:10:54.855Z,6.50
2019-02-19T21:13:22.004Z,6.60
2019-02-19T21:15:49.153Z,6.50
2019-02-19T21:18:16.613Z,6.70
2019-02-19T21:20:43.763Z,6.60
2019-02-19T21:23:12.145Z,6.50
2019-02-19T21:25:39.297Z,6.50
2019-02-19T21:28:06.443Z,6.40
2019-02-19T21:30:33.332Z,6.40
2019-02-19T21:33:00.437Z,6.50
2019-02-19T21:35:27.281Z,6.60
2019-02-19T21:37:54.430Z,6.50
2019-02-19T21:40:21.582Z,6.50
2019-02-19T21:42:48.469Z,6.70
2019-02-19T21:45:15.578Z,6.70
2019-02-19T21:47:44.301Z,6.50
2019-02-19T21:50:12.609Z,6.50
2019-02-19T21:52:39.484Z,6.50
2019-02-19T21:55:10.633Z,6.60
2019-02-19T21:57:37.522Z,6.80
2019-02-19T22:00:08.621Z,6.80
2019-02-19T22:02:35.631Z,6.80
2019-02-19T22:05:02.854Z,7.00
2019-02-19T22:07:30.685Z,6.70
2019-02-19T22:09:57.833Z,6.50
2019-02-19T22:12:24.985Z,6.40
2019-02-19T22:14:51.828Z,6.30
2019-02-19T22:17:18.719Z,6.40
2019-02-19T22:19:45.514Z,6.30
2019-02-19T22:22:12.971Z,6.30
2019-02-19T22:24:40.137Z,6.50
2019-02-19T22:27:07.233Z,6.40
2019-02-19T22:29:34.116Z,6.50
2019-02-19T22:32:01.266Z,6.50
2019-02-19T22:34:28.480Z,6.30
2019-02-19T22:36:55.567Z,6.40
2019-02-19T22:39:22.422Z,6.40
2019-02-19T22:41:49.254Z,6.30
2019-02-19T22:44:16.404Z,6.20
2019-02-19T22:46:43.555Z,6.10
2019-02-19T22:49:13.447Z,6.10
2019-02-19T22:51:40.315Z,6.10
2019-02-19T22:54:26.203Z,6.10
2019-02-19T22:56:53.355Z,6.10
2019-02-19T22:59:20.505Z,6.20
2019-02-19T23:01:49.806Z,6.10
2019-02-19T23:04:16.649Z,6.10
2019-02-19T23:06:43.495Z,6.10
2019-02-19T23:09:10.645Z,6.00
2019-02-19T23:11:37.793Z,6.10
2019-02-19T23:14:04.789Z,6.10
2019-02-19T23:16:31.788Z,6.10
2019-02-19T23:18:58.940Z,6.00
2019-02-19T23:21:25.784Z,6.10
2019-02-19T23:23:57.862Z,6.20
2019-02-19T23:26:27.001Z,6.30
2019-02-19T23:28:55.556Z,6.20
2019-02-19T23:31:22.425Z,5.90
2019-02-19T23:33:49.522Z,5.80
2019-02-19T23:36:18.208Z,5.80
2019-02-19T23:38:45.358Z,5.80
2019-02-19T23:41:12.509Z,5.80
2019-02-19T23:43:39.662Z,5.80
2019-02-19T23:46:06.810Z,5.80
2019-02-19T23:48:33.655Z,5.70
2019-02-19T23:51:00.810Z,5.60
2019-02-19T23:53:28.262Z,5.60
2019-02-19T23:55:55.415Z,5.80
2019-02-19T23:58:22.585Z,5.70
